Overview Statistics Trail Chart Weather Telemetry Raw packets
 

This is the latest recevied weather packets stored in our database for station/object OK1ALX-6. If no packets are shown the sender has not sent any weather packets the latest 10 day(s).

<< 1 2 3 4 5 6 7 >>
Time Temp. Humidity Pressure Rain* Wind** Luminosity Snow
1788565203 19.44° C 68% 1019.7 hPa 0 mm - 0 W/m² -
1788564603 19.44° C 68% 1019.6 hPa 0 mm - 0 W/m² -
1788564003 19.44° C 68% 1018.9 hPa 0 mm - 0 W/m² -
1788563403 19.44° C 68% 1018.7 hPa 0 mm - 0 W/m² -
1788562803 19.44° C 68% 1018 hPa 0 mm - 0 W/m² -
1788562203 20° C 69% 1017.9 hPa 0 mm - 0 W/m² -
1788561603 20° C 68% 1017.5 hPa 0 mm - 0 W/m² -
1788561003 20.56° C 69% 1017 hPa 0 mm - 0 W/m² -
1788560403 20.56° C 70% 1016.5 hPa 0 mm - 0 W/m² -
1788559803 21.11° C 69% 1016.4 hPa 0 mm - 0 W/m² -
1788559220 21.67° C 66% 1016 hPa 0 mm - 0 W/m² -
1788558603 22.22° C 61% 1015.5 hPa 0 mm - 0 W/m² -
1788558003 22.78° C 59% 1015.4 hPa 0 mm - 0 W/m² -
1788557403 22.78° C 57% 1015.3 hPa 0 mm - 0 W/m² -
1788556803 22.78° C 58% 1015 hPa 0 mm - 0 W/m² -
1788556203 22.78° C 58% 1015 hPa 0 mm - 0 W/m² -
1788555603 22.78° C 57% 1014.9 hPa 0 mm - 0 W/m² -
1788555003 22.78° C 57% 1015 hPa 0 mm - 0 W/m² -
1788554403 22.78° C 57% 1015 hPa 0 mm - 0 W/m² -
1788553803 22.78° C 58% 1015.2 hPa 0 mm - 0 W/m² -
1788553203 22.22° C 60% 1015.4 hPa 0 mm - 0 W/m² -
1788552603 22.78° C 59% 1015.1 hPa 0 mm - 0 W/m² -
1788552003 22.78° C 59% 1015.2 hPa 0 mm - 0 W/m² -
1788551403 22.78° C 58% 1015.4 hPa 0 mm - 0 W/m² -
1788550803 23.33° C 57% 1015.3 hPa 0 mm - 0 W/m² -

* Rain latest hour (hover to see other rain measurements)
** Current wind speed in m/s (hover to see current wind gust speed)